Timeline UpdatesTrip UpdatesNews PostsPvt PostsTravel TipsAdmin PostsConv PostsFollowed PostsChat RequestsBlog PostsPNR Posts

Disclaimer
Search
 
 
Thu Jul 31, 2014 04:49:06 ISTHomeTrainsΣChainsAtlasPNRForumGalleryNewsFAQTripsMembersLoginFeedback
No Recent News for this Train
Other Trains in the News **new
Latest...
.
Wed Nov 20, 2013 (01:29PM)
⇐ Return Journey: Train# 11078

11077/Jhelum Express

Jan 17 2014 (10:58AM)
Change Departure Station:
Change Arrival Station:
Post a Train Travel TipPost a Train Travel Tip **new
Post a Comment/Question/Picture/VideoPost a Comment/Question/Picture/Video
Inaugural Run
Sat Jan 01, 1977
Pantry/Catering
✓ Pantry Car Avbl
✓ Catering Avbl
Loco/Rake Reversals
DD/Daund Junction (7);
RSA - Rake Sharing
No RSA.
Rake/Coach Composition
From Pune-Daund Jn-->Loco, LDS, UR, A1, A2, B1, B2, B3, B4, B5, S1, PC, S2, S3 TO S10, UR, UR, MLTY; Daund Jn To Jammu Tawi--> Loco MLTY ,UR ,UR ,S10 To S2 ,PC ,S1,B5 -B1 ,A2 ,A1 ,UR ,LDS(DD-JAT)
Loco
PUNE-MMR=> PUNE WDP 4D; MMR-LDH=> LDH/GZB WAP-4; LDH-JAT=> LDH WDM3A/...
Read more...
TWIN LDH WDM3A
News    PNR    Forum    Time-Table    Availability    Fare Chart    Map    Arr/Dep History    Trips    Gallery    ΣChains    X/O    Timeline    
Travel Time: 1h 25m    2 halts    Distance: 98 km    Avg Speed: 69 km/hr
Type: Mail/Express
Zone: CR/Central
Departs @ 13:50 (Avg 42m late)
Platform# 5
SMTWTFS
Jhansi Junction/JHS 
Arrives @ 15:15 (Avg 1h 7m late)
Platform# 2
SMTWTFS
Gwalior Junction/GWL 

2 halts. 10 intermediate Stations between Jhansi Junction and Gwalior Junction

Show ALL intermediate Stations  Show Old Time-Table

#CodeStation NameX/OArrivesAvgDepartsAvgHaltPFDay#KmSpeedElevZoneAddress
1PUNEPune Junction (6)  -17:20+511-1188.266556mCRPune 411001, Maharashtra
2URIUruli (2)X  17:46+1217:47+121m21-1159.458553mCRDist. Pune 412202, Maharashtra
3DDDaund Junction (7)XO18:35+718:50+2315m51-1112.655521mCRNew Daund Dist. Pune 413801, Maharashtra
4ANGAhmadnagar (2)  20:22+2120:25+223m11-1028.468650mCRAhmednagar 414001, Maharashtra
5BAPBelapur (2)X  21:24+1721:25+191m11-961.455541mCRShrirampur, Maharashtra
6KPGKopargaon (2)X  22:14+922:15+131m11-916.739508mCRKopargaon 423601, Maharashtra
7MMRManmad Junction (6)23:20+1423:30+2710m31-874.546580mCRManmad 423104, Maharashtra
8NGNNandgaon (3)X  00:03+1800:05+182m22-849.290476mCRNandgaon, Maharashtra
9CSNChalisgaon Junction (3)X  00:33+2300:35+252m22-807.082352mCRChalisgaon 424101, Maharashtra
10PCPachora Junction (4)X  01:08+2401:10+272m22-762.1102264mCRPachora 424201, Maharashtra
11JLJalgaon Junction (4)X  01:38+3601:40+362m32-714.472213mCRJalgaon 425001, Maharashtra
12BSLBhusaval Junction (8)X  02:00+4102:10+4310m12-690.368208mCRBhusaval 425201, Maharashtra
13BAUBurhanpur (2)  02:58+3703:00+372m22-635.843269mCRBurhanpur, Madhya Pradesh
14KNWKhandwa Junction (5)X  04:35+104:40+35m42-567.0124310mCRKhandwa, Madhya Pradesh
15CAERChhanera (2)X  05:02+2305:04+232m22-521.587283mWCRChhanera, Madhya Pradesh
16HDHarda (3)  05:47+2205:49+232m22-459.361289mWCRHarda, Madhya Pradesh
17TBNTimarni (2)X  06:03+2306:05+232m22-445.274308mWCRTimarni, Madhya Pradesh
18BPFBanapura (2)  06:28+2206:30+222m12-417.050314mWCRBanapura, Madhya Pradesh
19ETItarsi Junction (7)X  07:10+1507:15+225m22-383.560329mWCRItarsi 461111, Madhya Pradesh
20HBDHoshangabad (2)X  07:33+2607:35+262m12-365.464308mWCRHoshangabad, Madhya Pradesh
21HBJBhopal HabibGanj (5)X  08:38+3908:40+392m32-298.115496mWCRHabibGanj, Madhya Pradesh
22BPLBhopal Junction (6)O  09:05+3009:10+325m22-291.887497mWCRBhopal, Madhya Pradesh
23BHSVidisha (3)X  09:47+3909:49+392m12-238.381432mWCRVidisha, Madhya Pradesh
24BAQGanj Basoda (4)X  10:18+4110:20+412m22-199.050416mWCRVidisha, Madhya Pradesh
25BINABina Junction (4)  11:15+2711:20+275m22-153.258414mWCRJn Pt - KATNI/GUNA/ BPL/JHS, Madhya Pradesh
26DUADhaura (3)X  11:56+3111:58+322m--2-118.681407mNCRDhaura Tanda, Madhya Pradesh
27LARLalitpur (3)  12:19+3312:21+332m32-90.390373mNCRLalitpur, Uttar Pradesh
28BABBabina (3)X  13:04+4113:06+422m22-25.545285mNCRBabina, Uttar Pradesh
29JHS»Jhansi Junction (7)»X  13:40+3913:50+4210m520.068259mNCRJhansi, Uttar Pradesh
30DAADatia (2)X  14:12+4814:14+492m2225.083264mNCRDatia, Madhya Pradesh
31DBADabra (3)X  14:36+5314:38+542m2255.469204mNCRDabra(District-Gwalior), Madhya Pradesh
32GWL•Gwalior Junction (4)•  15:15+1:0715:20+1:075m2297.793214mNCRGwalior, Madhya Pradesh
33MRAMorena (3)X  15:45+1:1415:47+1:142m22136.370176mNCRMorena, Madhya Pradesh
34DHODholpur Junction (3)  16:10+1:1816:12+1:192m12163.157177mNCRDholpur, Rajasthan
35AGCAgra Cantt. (6)X  17:07+1:1917:12+1:215m32215.734174mNCRAgra, Uttar Pradesh
36RKMRaja Ki Mandi (4)  17:19+1:2617:21+1:262m12219.769170mNCRAgra, Uttar Pradesh
37MTJMathura Junction (10)X  18:04+1:2518:07+1:263m32269.472179mNCRMathura, Uttar Pradesh
38FDBFaridabad (4)X  19:41+1:2019:43+1:202m22382.638206mNRold Faridabad, Haryana
39NZMDelhi Hazrat Nizamuddin (7)  20:16+1:1920:18+1:192m22403.316209mNRNizamuddin East/Sarai KaleKhan Bus Terminal, Delhi NCT
40NDLSNew Delhi (16)X  20:45+1:1721:05+1:1820m62410.715215mNRNew Delhi, Delhi NCT
41SZMDelhi Sabzi Mandi (2)  21:21+1:2721:23+1:272m12414.858220mNRGulabi Bagh, Delhi NCT
42NURNarela (2)X  21:47+1:3221:49+1:332m22438.160222mNRNarela, Delhi NCT
43SNPSonipat (3)X  22:06+1:3622:08+1:392m22455.260225mNRSonipat, Haryana
44GNUGanaurX  22:24+1:3822:26+1:392m--2471.153222mNRGanaur, Haryana
45SMKSamalkha (3)22:40+1:3722:41+1:391m--2483.449229mNRSamalkha, Haryana
46PNPPanipat Junction (5)  23:02+1:3523:04+1:352m32500.360235mNRPanipat, Haryana
47GRAGharaunda (2)23:21+1:3423:22+1:361m--2517.366244mNRGharaunda, Haryana
48KUNKarnal (3)  23:38+1:3323:40+1:332m22534.852253mNRKarnal, Haryana
49TRRTaraori (2)  23:54+1:3323:56+1:332m12546.938255mNRTaraori, Haryana
50KKDEKurukshetra Junction (3)O  00:29+1:0400:31+1:042m13567.852260mNRKurukshetra, Haryana
51UMBAmbala Cantt. Junction (7)X  01:20+1:1801:32+1:1612m33609.935278mNRAmbala 133001, Haryana
52UBCAmbala City (3)X  01:45+1:1701:46+1:181m33617.577273mNRNH-1, Haryana
53RPJRajpura Junction (3)XO  02:02+1:1902:03+1:211m13638.051272mNRNH-1, Punjab
54SIRSirhind Junction (3)X  02:32+1:1102:34+1:122m13662.877271mNRSirhind, Punjab
55KNNKhanna (3)X  02:48+1:1402:49+1:151m13680.856269mNRNH 1, Punjab
56LDHLudhiana Junction (7)X03:35+1:2303:45+1:5010m33723.658246mNRLudhiana 141001, Punjab
57PGWPhagwara Junction (3)X  04:22+1:4904:24+1:502m23759.261245mNRPhagwara, Punjab
58JRCJalandhar Cantt. Junction (3)  04:40+1:5004:45+1:525m13775.562239mNRNear Rama Mandi, Punjab
59TDOTanda Urmar (3)  05:26+1:5305:28+1:532m13817.861239mNRUrmar Tanda, Punjab
60DZADasuya (2)  05:43+1:5505:45+1:562m23833.150251mNRDasuya distt. hoshiarpur, Punjab
61MEXMukerian (3)  06:03+1:5606:05+1:572m23848.243257mNRMukerian distt. hosiharpur, Punjab
62PTKCPathankot Cantt (3)  07:00+1:4507:05+1:465m23888.042328mNRPathankot By Pass Ph:0186-2251594, Punjab
63KTHUKathua (2)  07:38+1:4907:40+1:502m13911.267396mNRdistt. kathua, Jammu and Kashmir
64HRNRHira Nagar (2)T08:06+1:5408:08+1:542m13940.089380mNRHiranagar, Jammu and Kashmir
65SMBXSamba (2)X  08:18+1:5908:20+2:002m23954.825365mNRDist. Samba, Jammu and Kashmir
66VJPJVijaypur Jammu (2)XO  08:47+1:4608:49+1:482m13966.218353mNRdistt. samba, Jammu and Kashmir
67JATJammu Tawi (3)  10:00+1:05-13987.4-337mNRJammu 180002, Jammu and Kashmir
Scroll to Top
Scroll to Bottom